createdAt,value
2018-07-05T00:03:29.240Z,62.10
2018-07-05T00:06:08.376Z,62.30
2018-07-05T00:08:47.340Z,60.00
2018-07-05T00:11:26.240Z,61.20
2018-07-05T00:14:05.535Z,61.30
2018-07-05T00:16:45.032Z,61.30
2018-07-05T00:19:24.033Z,61.70
2018-07-05T00:22:02.847Z,61.60
2018-07-05T00:24:43.018Z,62.30
2018-07-05T00:27:22.004Z,61.30
2018-07-05T00:32:34.080Z,61.30
2018-07-05T00:35:12.779Z,61.00
2018-07-05T00:37:51.860Z,61.50
2018-07-05T00:40:30.802Z,62.30
2018-07-05T00:43:09.658Z,62.00
2018-07-05T00:45:48.629Z,62.80
2018-07-05T00:48:27.533Z,63.20
2018-07-05T00:51:06.560Z,63.50
2018-07-05T00:53:45.470Z,63.60
2018-07-05T00:56:24.531Z,63.50
2018-07-05T00:59:03.488Z,63.40
2018-07-05T01:01:42.357Z,63.40
2018-07-05T01:04:21.243Z,65.70
2018-07-05T01:07:00.099Z,66.90
2018-07-05T01:09:39.029Z,66.40
2018-07-05T01:12:18.100Z,65.90
2018-07-05T01:14:57.971Z,66.40
2018-07-05T01:17:36.940Z,67.50
2018-07-05T01:20:15.886Z,66.80
2018-07-05T01:22:54.872Z,66.60
2018-07-05T01:25:33.818Z,66.90
2018-07-05T01:28:12.588Z,66.00
2018-07-05T01:30:51.660Z,63.70
2018-07-05T01:33:30.565Z,63.00
2018-07-05T01:36:09.514Z,63.10
2018-07-05T01:41:21.549Z,63.00
2018-07-05T01:44:00.453Z,63.20
2018-07-05T01:46:39.493Z,63.80
2018-07-05T01:49:18.244Z,63.30
2018-07-05T01:51:57.040Z,63.40
2018-07-05T01:54:36.136Z,63.40
2018-07-05T01:57:15.048Z,63.50
2018-07-05T01:59:54.007Z,63.30
2018-07-05T02:02:32.841Z,63.80
2018-07-05T02:05:11.799Z,65.00
2018-07-05T02:07:50.697Z,65.20
2018-07-05T02:10:29.576Z,65.70
2018-07-05T02:13:08.379Z,65.60
2018-07-05T02:15:47.208Z,66.60
2018-07-05T02:18:26.148Z,66.00
2018-07-05T02:21:05.113Z,65.20
2018-07-05T02:23:44.081Z,65.30
2018-07-05T02:26:23.075Z,65.00
2018-07-05T02:29:01.967Z,65.40
2018-07-05T02:31:41.640Z,66.10
2018-07-05T02:34:20.546Z,65.70
2018-07-05T02:36:59.548Z,66.40
2018-07-05T02:39:44.297Z,66.30
2018-07-05T02:42:23.131Z,66.90
2018-07-05T02:45:02.077Z,65.40
2018-07-05T02:47:41.174Z,65.60
2018-07-05T02:50:20.126Z,63.80
2018-07-05T02:52:59.085Z,64.00
2018-07-05T02:55:37.990Z,64.30
2018-07-05T02:58:16.889Z,64.00
2018-07-05T03:00:55.890Z,63.40
2018-07-05T03:03:34.996Z,62.90
2018-07-05T03:06:13.997Z,62.80
2018-07-05T03:08:52.916Z,62.80
2018-07-05T03:11:31.792Z,63.50
2018-07-05T03:14:10.869Z,64.70
2018-07-05T03:16:49.652Z,65.00
2018-07-05T03:19:28.424Z,65.50
2018-07-05T03:22:07.160Z,65.00
2018-07-05T03:24:46.239Z,64.80
2018-07-05T03:27:25.219Z,65.30
2018-07-05T03:30:04.308Z,65.50
2018-07-05T03:32:43.214Z,66.00
2018-07-05T03:35:22.104Z,66.00
2018-07-05T03:38:00.928Z,66.10
2018-07-05T03:40:39.916Z,66.40
2018-07-05T03:45:52.401Z,65.10
2018-07-05T03:53:37.302Z,64.70
2018-07-05T03:56:16.380Z,65.00
2018-07-05T03:58:55.220Z,65.80
2018-07-05T04:01:34.952Z,66.10
2018-07-05T04:04:13.644Z,65.70
2018-07-05T04:06:52.519Z,65.10
2018-07-05T04:09:31.435Z,64.20
2018-07-05T04:12:10.392Z,64.20
2018-07-05T04:14:49.296Z,64.80
2018-07-05T04:17:28.129Z,65.20
2018-07-05T04:20:07.172Z,65.30
2018-07-05T04:22:46.161Z,64.40
2018-07-05T04:25:25.311Z,64.80
2018-07-05T04:28:04.287Z,65.00
2018-07-05T04:30:43.265Z,65.60
2018-07-05T04:33:22.291Z,64.40
2018-07-05T04:36:01.401Z,64.00
2018-07-05T04:38:40.433Z,64.60
2018-07-05T04:41:19.370Z,65.00
2018-07-05T04:43:58.319Z,64.10
2018-07-05T04:46:37.241Z,64.80
2018-07-05T04:49:16.153Z,64.70
2018-07-05T04:51:55.051Z,65.10
2018-07-05T04:54:33.947Z,65.10
2018-07-05T04:57:13.053Z,64.50
2018-07-05T04:59:51.989Z,63.60
2018-07-05T05:05:04.083Z,64.70
2018-07-05T05:07:42.572Z,64.40
2018-07-05T05:10:21.425Z,63.80
2018-07-05T05:13:00.434Z,64.50
2018-07-05T05:15:39.501Z,64.50
2018-07-05T05:18:18.645Z,65.10
2018-07-05T05:20:57.709Z,63.10
2018-07-05T05:23:36.668Z,63.20
2018-07-05T05:26:15.660Z,63.90
2018-07-05T05:28:54.623Z,64.60
2018-07-05T05:31:33.597Z,64.50
2018-07-05T05:34:12.487Z,65.30
2018-07-05T05:36:51.532Z,65.50
2018-07-05T05:39:30.451Z,64.90
2018-07-05T05:42:09.449Z,65.80
2018-07-05T05:44:48.410Z,66.10
2018-07-05T05:47:27.379Z,64.50
2018-07-05T05:50:06.341Z,65.60
2018-07-05T05:52:45.163Z,65.90
2018-07-05T05:55:24.139Z,65.90
2018-07-05T05:58:03.842Z,66.00
2018-07-05T06:00:42.744Z,66.50
2018-07-05T06:03:21.813Z,66.70
2018-07-05T06:06:00.816Z,67.40
2018-07-05T06:08:40.995Z,69.30
2018-07-05T06:21:05.149Z,63.50
2018-07-05T06:23:44.025Z,63.50
2018-07-05T06:28:57.325Z,61.60
2018-07-05T06:31:36.065Z,61.00
2018-07-05T06:34:15.175Z,60.80
2018-07-05T06:36:54.151Z,60.90
2018-07-05T06:39:33.248Z,62.00
2018-07-05T06:42:12.268Z,63.30
2018-07-05T06:49:59.162Z,59.80
2018-07-05T07:02:23.788Z,61.30
2018-07-05T07:07:36.848Z,62.80
2018-07-05T07:10:15.690Z,63.10
2018-07-05T07:12:54.953Z,62.60
2018-07-05T07:15:33.976Z,62.20
2018-07-05T07:18:13.873Z,61.50
2018-07-05T07:20:52.685Z,61.60
2018-07-05T07:23:31.452Z,61.70
2018-07-05T07:26:10.552Z,62.50
2018-07-05T07:28:49.337Z,62.30
2018-07-05T07:31:28.417Z,59.90
2018-07-05T07:34:07.290Z,59.00
2018-07-05T07:36:46.174Z,58.60
2018-07-05T07:39:25.597Z,60.60
2018-07-05T07:41:52.019Z,61.00
2018-07-05T07:44:19.970Z,60.40
2018-07-05T07:46:47.522Z,59.80
2018-07-05T07:49:14.370Z,60.00
2018-07-05T07:51:40.809Z,60.20
2018-07-05T07:54:07.259Z,61.70
2018-07-05T07:56:33.723Z,61.80
2018-07-05T07:59:00.202Z,60.90
2018-07-05T08:01:26.634Z,61.50
2018-07-05T08:06:20.090Z,61.00
2018-07-05T08:08:46.759Z,61.60
2018-07-05T08:11:13.213Z,62.60
2018-07-05T08:13:39.620Z,62.10
2018-07-05T08:16:06.062Z,61.80
2018-07-05T08:18:32.465Z,62.10
2018-07-05T08:20:58.909Z,62.00
2018-07-05T08:23:25.342Z,61.00
2018-07-05T08:28:18.648Z,60.70
2018-07-05T08:30:45.960Z,61.00
2018-07-05T08:33:12.390Z,61.50
2018-07-05T08:35:40.994Z,61.50
2018-07-05T08:38:07.390Z,61.60
2018-07-05T08:40:33.826Z,61.00
2018-07-05T08:43:03.265Z,61.60
2018-07-05T08:45:30.445Z,61.60
2018-07-05T08:47:56.853Z,61.10
2018-07-05T08:50:23.943Z,61.60
2018-07-05T08:52:50.367Z,61.40
2018-07-05T08:55:16.772Z,61.00
2018-07-05T08:57:43.212Z,60.20
2018-07-05T09:00:09.631Z,60.90
2018-07-05T09:02:36.131Z,62.10
2018-07-05T09:05:02.544Z,60.30
2018-07-05T09:07:29.004Z,59.90
2018-07-05T09:09:55.430Z,59.50
2018-07-05T09:12:22.089Z,60.00
2018-07-05T09:14:48.520Z,61.30
2018-07-05T09:17:14.997Z,61.90
2018-07-05T09:29:26.461Z,61.40
2018-07-05T09:31:53.021Z,62.00
2018-07-05T09:34:19.504Z,62.10
2018-07-05T09:36:45.952Z,63.60
2018-07-05T09:39:12.585Z,62.80
2018-07-05T09:41:39.046Z,62.60
2018-07-05T09:44:05.878Z,63.30
2018-07-05T09:46:32.341Z,63.80
2018-07-05T09:51:25.732Z,63.20
2018-07-05T09:53:52.201Z,62.00
2018-07-05T09:56:18.654Z,62.00
2018-07-05T09:58:45.104Z,62.10
2018-07-05T10:01:11.558Z,61.80
2018-07-05T10:03:38.175Z,60.00
2018-07-05T10:06:05.694Z,60.50
2018-07-05T10:08:32.423Z,57.40
2018-07-05T10:10:59.593Z,58.00
2018-07-05T10:13:26.205Z,57.40
2018-07-05T10:15:52.762Z,58.30
2018-07-05T10:18:19.260Z,55.90
2018-07-05T10:20:45.656Z,55.70
2018-07-05T10:25:39.007Z,54.80
2018-07-05T10:28:05.979Z,55.60
2018-07-05T10:30:44.877Z,55.70
2018-07-05T10:33:23.955Z,56.20
2018-07-05T10:35:50.418Z,55.80
2018-07-05T10:38:16.837Z,56.10
2018-07-05T10:40:56.865Z,55.40
2018-07-05T10:43:35.912Z,55.60
2018-07-05T10:48:48.088Z,56.60
2018-07-05T10:51:27.037Z,56.20
2018-07-05T10:54:05.892Z,56.40
2018-07-05T10:56:45.165Z,57.00
2018-07-05T10:59:24.034Z,56.90
2018-07-05T11:02:03.058Z,58.70
2018-07-05T11:04:42.953Z,58.20
2018-07-05T11:07:22.024Z,58.70
2018-07-05T11:10:01.395Z,59.30
2018-07-05T11:12:40.921Z,59.20
2018-07-05T11:15:19.943Z,58.80
2018-07-05T11:17:59.111Z,59.80
2018-07-05T11:20:37.944Z,59.30
2018-07-05T11:23:16.825Z,59.30
2018-07-05T11:25:55.929Z,59.30
2018-07-05T11:28:35.744Z,57.70
2018-07-05T11:31:14.638Z,58.20
2018-07-05T11:33:53.604Z,55.80
2018-07-05T11:36:32.708Z,56.20
2018-07-05T11:39:11.758Z,55.00
2018-07-05T11:41:51.298Z,54.60
2018-07-05T11:44:30.299Z,55.60
2018-07-05T11:47:09.394Z,55.20
2018-07-05T11:49:48.357Z,55.30
2018-07-05T11:55:00.512Z,55.30
2018-07-05T12:07:24.489Z,56.60
2018-07-05T12:10:03.441Z,56.50
2018-07-05T12:12:42.276Z,57.70
2018-07-05T12:15:21.630Z,57.20
2018-07-05T12:18:00.570Z,57.00
2018-07-05T12:20:39.754Z,55.40
2018-07-05T12:23:18.962Z,57.30
2018-07-05T12:25:58.109Z,55.40
2018-07-05T12:28:36.996Z,56.10
2018-07-05T12:31:16.110Z,56.30
2018-07-05T12:33:54.996Z,54.70
2018-07-05T12:36:34.042Z,55.20
2018-07-05T12:48:58.344Z,53.90
2018-07-05T12:51:38.037Z,53.10
2018-07-05T12:54:16.847Z,52.60
2018-07-05T12:56:55.825Z,51.50
2018-07-05T12:59:34.784Z,51.40
2018-07-05T13:02:13.898Z,49.50
2018-07-05T13:04:53.176Z,49.50
2018-07-05T13:07:32.162Z,50.00
2018-07-05T13:10:11.436Z,50.60
2018-07-05T13:12:50.361Z,49.90
2018-07-05T13:15:29.350Z,51.10
2018-07-05T13:18:09.369Z,51.30
2018-07-05T13:20:48.484Z,51.10
2018-07-05T13:23:27.560Z,51.70
2018-07-05T13:26:06.673Z,51.90
2018-07-05T13:28:45.744Z,52.30
2018-07-05T13:31:24.528Z,51.90
2018-07-05T13:34:03.484Z,52.40
2018-07-05T13:36:42.379Z,53.30
2018-07-05T13:39:21.331Z,53.90
2018-07-05T13:42:00.645Z,53.80
2018-07-05T13:44:39.617Z,53.60
2018-07-05T13:47:18.600Z,53.40
2018-07-05T13:49:58.542Z,51.60
2018-07-05T13:52:37.546Z,52.00
2018-07-05T13:55:17.216Z,52.20
2018-07-05T13:57:56.059Z,53.00
2018-07-05T14:00:35.191Z,52.50
2018-07-05T14:03:14.313Z,52.60
2018-07-05T14:05:53.190Z,52.80
2018-07-05T14:08:32.342Z,53.00
2018-07-05T14:11:11.350Z,52.10
2018-07-05T14:13:50.351Z,52.10
2018-07-05T14:16:29.289Z,52.00
2018-07-05T14:19:08.246Z,52.70
2018-07-05T14:21:47.293Z,53.30
2018-07-05T14:24:26.907Z,53.10
2018-07-05T14:27:06.160Z,53.50
2018-07-05T14:29:45.217Z,53.60
2018-07-05T14:32:24.254Z,53.00
2018-07-05T14:35:03.376Z,53.70
2018-07-05T14:37:42.503Z,53.90
2018-07-05T14:40:22.004Z,54.60
2018-07-05T14:43:01.108Z,54.30
2018-07-05T14:45:40.133Z,54.60
2018-07-05T14:48:19.160Z,53.80
2018-07-05T14:50:58.142Z,53.60
2018-07-05T14:53:37.253Z,54.50
2018-07-05T14:56:16.258Z,55.70
2018-07-05T14:58:55.338Z,55.00
2018-07-05T15:01:34.469Z,53.10
2018-07-05T15:04:13.535Z,52.50
2018-07-05T15:06:52.436Z,51.90
2018-07-05T15:09:31.416Z,52.50
2018-07-05T15:12:10.371Z,51.90
2018-07-05T15:14:49.388Z,52.20
2018-07-05T15:17:28.525Z,51.70
2018-07-05T15:20:07.673Z,52.40
2018-07-05T15:22:46.731Z,52.90
2018-07-05T15:25:25.851Z,52.90
2018-07-05T15:28:04.836Z,51.10
2018-07-05T15:30:43.913Z,51.10
2018-07-05T15:33:22.883Z,52.20
2018-07-05T15:36:01.738Z,53.00
2018-07-05T15:38:40.681Z,52.80
2018-07-05T15:41:19.606Z,50.00
2018-07-05T15:43:58.607Z,51.10
2018-07-05T15:46:37.625Z,52.60
2018-07-05T15:49:17.315Z,49.50
2018-07-05T15:54:30.177Z,51.00
2018-07-05T15:57:09.271Z,50.40
2018-07-05T15:59:48.221Z,50.40
2018-07-05T16:02:27.128Z,51.10
2018-07-05T16:05:06.010Z,50.40
2018-07-05T16:07:44.718Z,50.00
2018-07-05T16:10:23.796Z,50.40
2018-07-05T16:13:02.690Z,50.30
2018-07-05T16:15:41.618Z,51.30
2018-07-05T16:18:20.714Z,51.20
2018-07-05T16:20:59.644Z,51.90
2018-07-05T16:23:38.538Z,53.10
2018-07-05T16:26:17.491Z,53.60
2018-07-05T16:28:57.152Z,53.90
2018-07-05T16:31:36.177Z,54.60
2018-07-05T16:34:15.216Z,54.30
2018-07-05T16:36:54.040Z,54.40
2018-07-05T16:39:33.086Z,54.60
2018-07-05T16:42:12.394Z,55.60
2018-07-05T16:44:51.320Z,54.90
2018-07-05T16:47:30.165Z,55.00
2018-07-05T16:50:09.132Z,55.00
2018-07-05T16:52:48.080Z,55.00
2018-07-05T16:55:27.112Z,55.00
2018-07-05T16:58:05.991Z,54.90
2018-07-05T17:00:45.030Z,54.30
2018-07-05T17:03:24.761Z,54.90
2018-07-05T17:06:03.724Z,54.80
2018-07-05T17:08:42.686Z,54.50
2018-07-05T17:11:22.281Z,54.30
2018-07-05T17:14:01.344Z,54.30
2018-07-05T17:19:13.394Z,54.30
2018-07-05T17:21:52.421Z,54.70
2018-07-05T17:24:31.205Z,54.70
2018-07-05T17:29:44.160Z,55.30
2018-07-05T17:32:23.092Z,55.70
2018-07-05T17:35:02.128Z,54.50
2018-07-05T17:37:41.181Z,55.40
2018-07-05T17:40:20.117Z,55.90
2018-07-05T17:42:59.164Z,56.80
2018-07-05T17:45:38.123Z,57.30
2018-07-05T17:48:17.169Z,56.10
2018-07-05T17:50:56.092Z,56.90
2018-07-05T17:53:35.901Z,56.70
2018-07-05T17:56:14.784Z,56.00
2018-07-05T17:58:54.620Z,55.30
2018-07-05T18:01:33.601Z,56.30
2018-07-05T18:04:13.739Z,55.90
2018-07-05T18:06:52.822Z,56.10
2018-07-05T18:09:31.875Z,56.50
2018-07-05T18:12:10.741Z,56.30
2018-07-05T18:14:49.739Z,56.30
2018-07-05T18:17:28.683Z,56.10
2018-07-05T18:20:07.777Z,56.20
2018-07-05T18:22:46.799Z,57.40
2018-07-05T18:25:25.750Z,57.10
2018-07-05T18:28:04.961Z,57.70
2018-07-05T18:30:43.881Z,58.20
2018-07-05T18:33:22.779Z,58.30
2018-07-05T18:36:01.899Z,59.30
2018-07-05T18:38:40.920Z,57.70
2018-07-05T18:41:19.882Z,57.70
2018-07-05T18:43:58.852Z,57.70
2018-07-05T18:46:37.797Z,57.70
2018-07-05T18:49:17.701Z,57.70
2018-07-05T18:51:57.803Z,57.70
2018-07-05T18:54:37.938Z,58.50
2018-07-05T18:57:18.004Z,58.00
2018-07-05T18:59:56.998Z,58.00
2018-07-05T19:02:36.298Z,58.80
2018-07-05T19:05:15.766Z,59.10
2018-07-05T19:07:55.606Z,59.20
2018-07-05T19:10:35.869Z,59.10
2018-07-05T19:13:14.896Z,59.70
2018-07-05T19:15:54.597Z,60.10
2018-07-05T19:21:09.581Z,60.10
2018-07-05T19:23:48.429Z,60.70
2018-07-05T19:26:28.064Z,61.20
2018-07-05T19:29:07.313Z,60.60
2018-07-05T19:31:46.188Z,61.10
2018-07-05T19:34:25.246Z,61.10
2018-07-05T19:37:04.264Z,61.10
2018-07-05T19:39:43.356Z,63.10
2018-07-05T19:42:22.501Z,62.40
2018-07-05T19:45:01.234Z,61.40
2018-07-05T19:47:40.295Z,61.30
2018-07-05T19:50:19.560Z,61.30
2018-07-05T19:52:58.611Z,61.00
2018-07-05T19:55:38.041Z,61.60
2018-07-05T19:58:17.052Z,61.20
2018-07-05T20:00:56.272Z,61.90
2018-07-05T20:03:36.162Z,62.30
2018-07-05T20:06:15.499Z,62.20
2018-07-05T20:08:54.710Z,62.30
2018-07-05T20:11:33.767Z,63.20
2018-07-05T20:14:13.014Z,63.00
2018-07-05T20:16:51.890Z,62.70
2018-07-05T20:19:30.874Z,62.60
2018-07-05T20:22:15.732Z,62.20
2018-07-05T20:24:54.743Z,62.60
2018-07-05T20:27:33.530Z,64.30
2018-07-05T20:30:13.140Z,63.20
2018-07-05T20:32:52.846Z,63.90
2018-07-05T20:35:31.881Z,63.50
2018-07-05T20:38:10.803Z,63.00
2018-07-05T20:40:49.840Z,63.20
2018-07-05T20:43:29.058Z,64.00
2018-07-05T20:46:08.117Z,63.30
2018-07-05T20:48:46.995Z,63.20
2018-07-05T20:51:26.721Z,64.10
2018-07-05T20:54:05.730Z,62.60
2018-07-05T20:56:44.670Z,63.70
2018-07-05T20:59:23.776Z,62.30
2018-07-05T21:02:03.802Z,63.10
2018-07-05T21:04:43.525Z,63.60
2018-07-05T21:07:22.549Z,64.00
2018-07-05T21:10:01.542Z,64.00
2018-07-05T21:12:40.560Z,62.90
2018-07-05T21:15:19.539Z,61.80
2018-07-05T21:17:58.512Z,61.20
2018-07-05T21:20:38.115Z,62.00
2018-07-05T21:23:17.356Z,61.60
2018-07-05T21:25:57.278Z,62.40
2018-07-05T21:28:36.304Z,62.00
2018-07-05T21:31:15.515Z,61.80
2018-07-05T21:33:54.521Z,60.80
2018-07-05T21:36:33.677Z,61.80
2018-07-05T21:39:12.643Z,61.30
2018-07-05T21:41:51.771Z,62.30
2018-07-05T21:47:03.886Z,62.00
2018-07-05T21:49:43.002Z,62.00
2018-07-05T21:52:22.017Z,62.20
2018-07-05T21:55:01.076Z,61.70
2018-07-05T21:57:39.999Z,61.50
2018-07-05T22:00:19.130Z,60.80
2018-07-05T22:02:58.139Z,60.20
2018-07-05T22:05:37.583Z,61.10
2018-07-05T22:08:16.444Z,60.80
2018-07-05T22:10:56.633Z,60.20
2018-07-05T22:13:35.634Z,60.70
2018-07-05T22:18:53.794Z,60.00
2018-07-05T22:21:37.808Z,60.10
2018-07-05T22:24:23.488Z,60.50
2018-07-05T22:27:03.815Z,61.10
2018-07-05T22:29:49.582Z,61.40
2018-07-05T22:32:29.322Z,60.30
2018-07-05T22:35:09.918Z,59.90
2018-07-05T22:37:49.083Z,60.00
2018-07-05T22:40:28.446Z,59.30
2018-07-05T22:43:07.728Z,60.50
2018-07-05T22:45:46.990Z,60.80
2018-07-05T22:48:25.868Z,60.90
2018-07-05T22:51:05.192Z,60.00
2018-07-05T22:56:17.342Z,60.60
2018-07-05T22:58:56.386Z,60.60
2018-07-05T23:01:35.279Z,61.30
2018-07-05T23:04:14.307Z,60.60
2018-07-05T23:06:54.354Z,61.30
2018-07-05T23:09:33.116Z,61.80
2018-07-05T23:12:12.137Z,62.10
2018-07-05T23:14:51.869Z,62.10
2018-07-05T23:17:30.868Z,62.80
2018-07-05T23:20:11.439Z,62.50
2018-07-05T23:22:50.497Z,63.00
2018-07-05T23:25:29.359Z,62.60
2018-07-05T23:28:08.287Z,63.60
2018-07-05T23:30:47.386Z,65.10
2018-07-05T23:33:26.835Z,62.60
2018-07-05T23:36:05.988Z,63.00
2018-07-05T23:38:44.901Z,63.70
2018-07-05T23:41:23.959Z,63.50
2018-07-05T23:44:03.016Z,63.90
2018-07-05T23:46:42.884Z,62.60
2018-07-05T23:59:11.900Z,63.30
